createdAt,value
2022-11-08T00:01:37.132Z,63.76
2022-11-08T00:04:07.388Z,64.18
2022-11-08T00:06:54.165Z,63.90
2022-11-08T00:09:41.163Z,63.87
2022-11-08T00:12:29.609Z,63.81
2022-11-08T00:14:57.974Z,63.87
2022-11-08T00:17:27.275Z,63.52
2022-11-08T00:19:55.250Z,63.63
2022-11-08T00:22:23.812Z,63.78
2022-11-08T00:24:54.558Z,63.71
2022-11-08T00:27:23.597Z,63.75
2022-11-08T00:29:52.118Z,63.42
2022-11-08T00:32:23.128Z,63.71
2022-11-08T00:34:52.179Z,63.46
2022-11-08T00:37:22.023Z,63.29
2022-11-08T00:39:49.734Z,62.97
2022-11-08T00:42:17.542Z,62.91
2022-11-08T00:44:47.043Z,62.89
2022-11-08T00:47:16.073Z,63.07
2022-11-08T00:49:45.230Z,63.21
2022-11-08T00:52:13.282Z,63.24
2022-11-08T00:54:40.942Z,63.29
2022-11-08T00:57:09.365Z,63.29
2022-11-08T00:59:37.842Z,63.06
2022-11-08T01:02:05.888Z,63.01
2022-11-08T01:04:35.280Z,63.16
2022-11-08T01:07:03.713Z,62.86
2022-11-08T01:09:31.181Z,62.73
2022-11-08T01:11:59.015Z,62.90
2022-11-08T01:14:44.005Z,63.38
2022-11-08T01:17:26.062Z,63.27
2022-11-08T01:20:09.864Z,63.32
2022-11-08T01:22:37.782Z,62.98
2022-11-08T01:25:05.678Z,63.56
2022-11-08T01:27:34.222Z,63.22
2022-11-08T01:30:03.928Z,63.22
2022-11-08T01:32:37.057Z,63.02
2022-11-08T01:35:24.673Z,63.04
2022-11-08T01:37:52.256Z,63.13
2022-11-08T01:40:22.209Z,63.16
2022-11-08T01:42:50.221Z,63.24
2022-11-08T01:45:55.880Z,63.31
2022-11-08T01:48:24.553Z,63.24
2022-11-08T01:50:55.577Z,63.59
2022-11-08T01:53:25.296Z,64.77
2022-11-08T01:55:52.968Z,64.68
2022-11-08T01:58:24.557Z,64.29
2022-11-08T02:00:53.006Z,64.36
2022-11-08T02:03:21.637Z,63.83
2022-11-08T02:06:07.261Z,63.89
2022-11-08T02:08:40.815Z,64.53
2022-11-08T02:11:11.162Z,64.47
2022-11-08T02:13:39.474Z,63.99
2022-11-08T02:16:16.889Z,63.89
2022-11-08T02:18:45.523Z,63.48
2022-11-08T02:21:36.276Z,63.76
2022-11-08T02:24:12.470Z,63.98
2022-11-08T02:26:41.561Z,64.49
2022-11-08T02:29:48.027Z,64.16
2022-11-08T02:32:15.466Z,63.45
2022-11-08T02:34:51.054Z,63.87
2022-11-08T02:37:20.161Z,64.57
2022-11-08T02:39:49.383Z,64.56
2022-11-08T02:42:20.473Z,64.37
2022-11-08T02:44:58.632Z,63.87
2022-11-08T02:47:39.534Z,64.27
2022-11-08T02:50:08.792Z,63.74
2022-11-08T02:52:36.298Z,64.21
2022-11-08T02:55:04.292Z,64.62
2022-11-08T02:57:32.952Z,63.99
2022-11-08T03:00:00.360Z,63.96
2022-11-08T03:02:28.281Z,64.08
2022-11-08T03:04:56.120Z,63.89
2022-11-08T03:07:25.104Z,63.47
2022-11-08T03:09:54.204Z,63.47
2022-11-08T03:16:43.613Z,63.28
2022-11-08T03:19:12.365Z,64.75
2022-11-08T03:21:39.795Z,64.62
2022-11-08T03:24:07.760Z,64.32
2022-11-08T03:26:36.086Z,64.50
2022-11-08T03:29:03.970Z,64.93
2022-11-08T03:31:31.407Z,65.37
2022-11-08T03:33:59.299Z,65.23
2022-11-08T03:36:28.665Z,65.87
2022-11-08T03:38:56.259Z,65.99
2022-11-08T03:41:25.218Z,65.74
2022-11-08T03:43:53.241Z,65.68
2022-11-08T03:46:22.028Z,65.82
2022-11-08T03:48:49.817Z,65.57
2022-11-08T03:51:18.029Z,65.39
2022-11-08T03:53:45.854Z,65.17
2022-11-08T03:56:14.452Z,65.44
2022-11-08T03:58:42.066Z,66.20
2022-11-08T04:01:09.974Z,65.90
2022-11-08T04:03:38.302Z,65.51
2022-11-08T04:06:07.860Z,66.62
2022-11-08T04:08:36.671Z,66.23
2022-11-08T04:11:23.105Z,66.21
2022-11-08T04:14:10.199Z,66.36
2022-11-08T04:16:38.802Z,66.79
2022-11-08T04:19:25.865Z,66.66
2022-11-08T04:21:56.375Z,67.26
2022-11-08T04:24:23.963Z,67.39
2022-11-08T04:26:51.635Z,67.03
2022-11-08T04:29:19.473Z,66.88
2022-11-08T04:31:48.069Z,66.97
2022-11-08T04:34:15.531Z,67.28
2022-11-08T04:36:43.695Z,67.32
2022-11-08T04:39:11.114Z,66.84
2022-11-08T04:41:38.703Z,66.57
2022-11-08T04:44:07.552Z,66.63
2022-11-08T04:46:35.104Z,66.62
2022-11-08T04:49:02.721Z,66.91
2022-11-08T04:51:34.867Z,66.80
2022-11-08T04:54:05.150Z,67.19
2022-11-08T04:56:33.654Z,66.58
2022-11-08T04:59:02.520Z,67.23
2022-11-08T05:01:32.065Z,66.95
2022-11-08T05:04:07.894Z,67.35
2022-11-08T05:06:36.436Z,67.68
2022-11-08T05:09:05.150Z,67.22
2022-11-08T05:11:33.709Z,67.03
2022-11-08T05:14:06.134Z,67.62
2022-11-08T05:16:34.155Z,66.31
2022-11-08T05:19:03.634Z,65.80
2022-11-08T05:21:55.003Z,67.09
2022-11-08T05:24:24.036Z,66.55
2022-11-08T05:26:53.193Z,67.24
2022-11-08T05:29:22.168Z,67.53
2022-11-08T05:31:51.089Z,67.07
2022-11-08T05:34:19.054Z,67.99
2022-11-08T05:36:47.513Z,67.32
2022-11-08T05:39:17.215Z,67.75
2022-11-08T05:41:45.025Z,66.72
2022-11-08T05:44:13.400Z,66.40
2022-11-08T05:46:42.847Z,67.32
2022-11-08T05:49:10.989Z,67.31
2022-11-08T05:51:43.187Z,67.50
2022-11-08T05:54:19.925Z,67.26
2022-11-08T05:56:48.490Z,66.97
2022-11-08T05:59:16.393Z,65.83
2022-11-08T06:01:45.167Z,65.35
2022-11-08T06:04:13.606Z,65.53
2022-11-08T06:06:41.440Z,66.41
2022-11-08T06:09:33.157Z,66.57
2022-11-08T06:12:15.356Z,67.29
2022-11-08T06:14:58.931Z,67.51
2022-11-08T06:17:34.175Z,67.17
2022-11-08T06:20:04.432Z,65.99
2022-11-08T06:22:49.089Z,66.53
2022-11-08T06:25:32.875Z,67.58
2022-11-08T06:28:19.331Z,66.11
2022-11-08T06:31:03.401Z,66.01
2022-11-08T06:33:46.373Z,67.28
2022-11-08T06:36:30.480Z,67.49
2022-11-08T06:39:13.860Z,67.98
2022-11-08T06:41:56.781Z,67.61
2022-11-08T06:44:40.215Z,66.50
2022-11-08T06:47:22.005Z,66.09
2022-11-08T06:49:57.845Z,67.57
2022-11-08T06:52:25.707Z,66.49
2022-11-08T06:54:54.675Z,67.51
2022-11-08T06:57:23.420Z,68.73
2022-11-08T06:59:52.287Z,66.78
2022-11-08T07:02:20.371Z,66.76
2022-11-08T07:04:48.680Z,66.71
2022-11-08T07:07:19.246Z,67.45
2022-11-08T07:09:47.100Z,67.78
2022-11-08T07:12:16.007Z,68.21
2022-11-08T07:14:44.498Z,68.69
2022-11-08T07:17:12.272Z,68.76
2022-11-08T07:22:13.763Z,68.80
2022-11-08T07:24:42.140Z,69.11
2022-11-08T07:27:11.387Z,68.89
2022-11-08T07:29:40.419Z,68.43
2022-11-08T07:32:14.659Z,67.20
2022-11-08T07:34:42.312Z,67.23
2022-11-08T07:37:11.102Z,68.31
2022-11-08T07:39:40.069Z,68.84
2022-11-08T07:42:08.156Z,68.77
2022-11-08T07:44:45.098Z,69.35
2022-11-08T07:47:13.313Z,69.38
2022-11-08T07:49:41.332Z,69.30
2022-11-08T07:52:09.918Z,68.50
2022-11-08T07:54:39.038Z,68.64
2022-11-08T07:57:08.017Z,68.08
2022-11-08T07:59:37.282Z,68.71
2022-11-08T08:02:05.576Z,69.20
2022-11-08T08:04:34.567Z,67.88
2022-11-08T08:07:05.059Z,68.63
2022-11-08T08:09:37.298Z,69.47
2022-11-08T08:12:11.881Z,69.83
2022-11-08T08:14:40.592Z,69.53
2022-11-08T08:17:08.935Z,70.40
2022-11-08T08:19:37.438Z,69.12
2022-11-08T08:22:07.413Z,69.30
2022-11-08T08:24:35.072Z,69.76
2022-11-08T08:27:06.686Z,69.13
2022-11-08T08:29:34.448Z,69.51
2022-11-08T08:32:02.202Z,67.90
2022-11-08T08:34:40.641Z,69.98
2022-11-08T08:37:10.202Z,69.69
2022-11-08T08:39:38.766Z,71.08
2022-11-08T08:42:08.536Z,69.19
2022-11-08T08:44:38.290Z,68.67
2022-11-08T08:47:06.620Z,69.65
2022-11-08T08:49:41.122Z,69.03
2022-11-08T08:52:09.921Z,69.67
2022-11-08T08:54:39.890Z,69.26
2022-11-08T08:57:12.947Z,69.37
2022-11-08T09:02:31.670Z,71.08
2022-11-08T09:05:06.046Z,70.11
2022-11-08T09:07:34.022Z,70.64
2022-11-08T09:10:02.610Z,69.57
2022-11-08T09:12:31.726Z,68.31
2022-11-08T09:15:00.491Z,68.64
2022-11-08T09:17:29.283Z,70.01
2022-11-08T09:19:57.628Z,70.49
2022-11-08T09:22:27.423Z,69.53
2022-11-08T09:24:58.412Z,71.68
2022-11-08T09:27:28.510Z,71.68
2022-11-08T09:29:59.667Z,71.61
2022-11-08T09:32:39.726Z,72.28
2022-11-08T09:35:17.130Z,72.79
2022-11-08T09:37:48.659Z,71.29
2022-11-08T09:40:22.291Z,71.88
2022-11-08T09:43:28.181Z,72.33
2022-11-08T09:45:57.587Z,71.12
2022-11-08T09:48:35.225Z,71.67
2022-11-08T09:51:08.410Z,71.44
2022-11-08T09:53:49.813Z,72.31
2022-11-08T09:56:27.908Z,73.74
2022-11-08T09:59:02.389Z,73.45
2022-11-08T10:01:37.157Z,72.65
2022-11-08T10:04:14.081Z,73.48
2022-11-08T10:07:05.995Z,71.44
2022-11-08T10:09:54.144Z,70.70
2022-11-08T10:12:30.973Z,71.86
2022-11-08T10:15:15.328Z,72.80
2022-11-08T10:17:49.532Z,73.56
2022-11-08T10:20:32.752Z,72.62
2022-11-08T10:23:06.921Z,73.63
2022-11-08T10:25:46.093Z,73.06
2022-11-08T10:28:16.750Z,72.63
2022-11-08T10:30:55.086Z,70.11
2022-11-08T10:33:29.422Z,70.20
2022-11-08T10:36:11.945Z,71.49
2022-11-08T10:39:05.038Z,71.28
2022-11-08T10:45:59.037Z,70.65
2022-11-08T10:48:37.937Z,70.33
2022-11-08T10:51:25.663Z,70.65
2022-11-08T10:54:44.854Z,70.32
2022-11-08T10:57:43.427Z,69.96
2022-11-08T11:00:34.379Z,67.27
2022-11-08T11:03:40.074Z,67.29
2022-11-08T11:06:25.937Z,68.50
2022-11-08T11:09:22.427Z,69.16
2022-11-08T11:12:09.365Z,69.20
2022-11-08T11:15:04.150Z,67.93
2022-11-08T11:20:35.143Z,68.36
2022-11-08T11:27:35.901Z,64.82
2022-11-08T11:30:33.082Z,63.65
2022-11-08T11:33:24.184Z,63.52
2022-11-08T11:36:30.051Z,64.01
2022-11-08T11:39:06.165Z,65.37
2022-11-08T11:41:42.277Z,66.22
2022-11-08T11:44:12.385Z,64.72
2022-11-08T11:46:54.058Z,64.99
2022-11-08T11:49:29.904Z,64.23
2022-11-08T11:51:59.025Z,64.28
2022-11-08T11:54:30.606Z,65.38
2022-11-08T11:57:08.979Z,64.54
2022-11-08T12:00:05.079Z,65.77
2022-11-08T12:02:59.782Z,65.20
2022-11-08T12:10:08.643Z,64.88
2022-11-08T12:12:51.654Z,65.03
2022-11-08T12:16:00.113Z,64.20
2022-11-08T12:19:00.927Z,64.85
2022-11-08T12:21:47.445Z,63.48
2022-11-08T12:24:32.922Z,64.61
2022-11-08T12:27:40.802Z,63.02
2022-11-08T12:30:16.907Z,64.43
2022-11-08T12:33:14.841Z,64.88
2022-11-08T12:36:03.973Z,64.74
2022-11-08T12:38:39.837Z,64.92
2022-11-08T12:41:14.602Z,63.79
2022-11-08T12:44:08.888Z,63.82
2022-11-08T12:47:00.858Z,64.74
2022-11-08T12:49:41.136Z,63.74
2022-11-08T12:52:52.868Z,65.65
2022-11-08T12:55:30.069Z,63.31
2022-11-08T12:58:00.185Z,63.98
2022-11-08T13:00:29.951Z,64.77
2022-11-08T13:03:28.086Z,63.44
2022-11-08T13:06:13.442Z,64.85
2022-11-08T13:08:57.009Z,64.68
2022-11-08T13:11:53.754Z,63.98
2022-11-08T13:14:27.953Z,63.47
2022-11-08T13:17:12.967Z,62.91
2022-11-08T13:19:48.922Z,65.19
2022-11-08T13:22:30.037Z,63.87
2022-11-08T13:29:19.093Z,63.71
2022-11-08T13:32:10.252Z,63.78
2022-11-08T13:35:00.957Z,62.84
2022-11-08T13:37:54.785Z,63.07
2022-11-08T13:40:28.107Z,63.69
2022-11-08T13:43:26.666Z,63.46
2022-11-08T13:45:57.989Z,62.98
2022-11-08T13:48:42.114Z,62.88
2022-11-08T13:51:27.168Z,62.72
2022-11-08T13:54:02.904Z,63.34
2022-11-08T13:56:53.699Z,62.53
2022-11-08T13:59:32.225Z,62.47
2022-11-08T14:02:03.800Z,62.49
2022-11-08T14:04:41.874Z,64.80
2022-11-08T14:07:35.915Z,63.58
2022-11-08T14:10:28.453Z,63.45
2022-11-08T14:13:10.885Z,64.46
2022-11-08T14:16:07.955Z,64.46
2022-11-08T14:18:40.100Z,64.59
2022-11-08T14:21:08.889Z,63.72
2022-11-08T14:23:41.221Z,64.13
2022-11-08T14:26:16.933Z,64.28
2022-11-08T14:28:47.752Z,63.46
2022-11-08T14:31:35.136Z,64.03
2022-11-08T14:34:05.119Z,63.34
2022-11-08T14:36:33.571Z,63.85
2022-11-08T14:39:16.746Z,63.61
2022-11-08T14:41:57.758Z,64.11
2022-11-08T14:47:23.230Z,63.83
2022-11-08T14:49:52.087Z,63.73
2022-11-08T14:52:26.345Z,63.37
2022-11-08T14:55:07.934Z,62.88
2022-11-08T14:57:45.643Z,62.42
2022-11-08T15:00:24.435Z,62.38
2022-11-08T15:02:56.775Z,63.11
2022-11-08T15:05:43.074Z,63.97
2022-11-08T15:08:25.086Z,63.51
2022-11-08T15:11:09.020Z,64.96
2022-11-08T15:13:44.037Z,64.76
2022-11-08T15:21:02.074Z,64.36
2022-11-08T15:23:36.018Z,63.83
2022-11-08T15:26:06.277Z,64.35
2022-11-08T15:28:36.139Z,64.40
2022-11-08T15:31:05.237Z,64.74
2022-11-08T15:33:38.184Z,64.62
2022-11-08T15:36:16.500Z,65.66
2022-11-08T15:38:50.108Z,66.02
2022-11-08T15:44:22.129Z,67.13
2022-11-08T15:46:53.196Z,68.83
2022-11-08T15:49:30.093Z,68.88
2022-11-08T15:52:06.148Z,69.16
2022-11-08T15:54:35.909Z,69.83
2022-11-08T15:57:11.457Z,70.38
2022-11-08T15:59:48.859Z,70.59
2022-11-08T16:05:12.904Z,71.10
2022-11-08T16:07:46.884Z,70.42
2022-11-08T16:10:37.142Z,70.07
2022-11-08T16:15:49.913Z,71.84
2022-11-08T16:18:24.234Z,71.57
2022-11-08T16:20:59.130Z,70.78
2022-11-08T16:26:03.783Z,71.11
2022-11-08T16:28:39.092Z,70.80
2022-11-08T16:31:14.559Z,71.08
2022-11-08T16:33:54.606Z,71.06
2022-11-08T16:39:26.859Z,70.15
2022-11-08T16:42:02.949Z,71.75
2022-11-08T16:44:36.073Z,71.69
2022-11-08T16:47:17.240Z,71.26
2022-11-08T16:52:33.320Z,73.79
2022-11-08T16:55:02.974Z,72.91
2022-11-08T16:57:35.483Z,73.69
2022-11-08T17:00:09.394Z,73.50
2022-11-08T17:02:43.997Z,73.70
2022-11-08T17:05:21.188Z,71.84
2022-11-08T17:07:55.815Z,72.42
2022-11-08T17:10:29.411Z,72.91
2022-11-08T17:15:53.414Z,73.50
2022-11-08T17:18:47.459Z,74.41
2022-11-08T17:21:44.395Z,73.59
2022-11-08T17:24:22.312Z,74.37
2022-11-08T17:26:54.264Z,74.79
2022-11-08T17:29:29.982Z,75.42
2022-11-08T17:32:07.898Z,74.85
2022-11-08T17:34:43.930Z,74.34
2022-11-08T17:37:14.951Z,73.65
2022-11-08T17:40:01.961Z,74.60
2022-11-08T17:42:40.898Z,75.49
2022-11-08T17:45:11.940Z,74.43
2022-11-08T17:47:45.918Z,74.87
2022-11-08T17:50:14.745Z,75.05
2022-11-08T17:53:00.903Z,74.67
2022-11-08T17:56:05.141Z,74.42
2022-11-08T17:59:00.500Z,74.55
2022-11-08T18:01:44.742Z,73.58
2022-11-08T18:04:29.814Z,73.06
2022-11-08T18:07:16.165Z,72.27
2022-11-08T18:09:52.911Z,73.57
2022-11-08T18:12:37.021Z,72.56
2022-11-08T18:15:27.026Z,73.46
2022-11-08T18:18:09.780Z,73.30
2022-11-08T18:21:02.893Z,74.01
2022-11-08T18:23:49.889Z,74.11
2022-11-08T18:26:43.378Z,72.66
2022-11-08T18:29:43.109Z,73.64
2022-11-08T18:32:26.129Z,72.10
2022-11-08T18:35:14.938Z,73.56
2022-11-08T18:38:09.396Z,74.32
2022-11-08T18:41:00.237Z,73.68
2022-11-08T18:43:58.869Z,73.34
2022-11-08T18:46:43.974Z,72.04
2022-11-08T18:53:37.957Z,72.53
2022-11-08T18:56:13.357Z,73.33
2022-11-08T18:58:47.482Z,73.05
2022-11-08T19:01:19.054Z,71.77
2022-11-08T19:06:40.079Z,71.88
2022-11-08T19:09:08.668Z,72.33
2022-11-08T19:11:41.843Z,73.04
2022-11-08T19:14:20.928Z,73.04
2022-11-08T19:17:08.213Z,71.71
2022-11-08T19:19:39.621Z,72.65
2022-11-08T19:22:13.524Z,74.21
2022-11-08T19:24:54.604Z,73.91
2022-11-08T19:27:27.385Z,72.83
2022-11-08T19:30:00.954Z,73.19
2022-11-08T19:35:20.260Z,72.65
2022-11-08T19:37:51.146Z,72.67
2022-11-08T19:40:31.764Z,72.78
2022-11-08T19:43:02.920Z,73.50
2022-11-08T19:50:51.397Z,72.01
2022-11-08T19:53:34.064Z,71.32
2022-11-08T19:56:12.891Z,73.23
2022-11-08T19:58:49.286Z,72.75
2022-11-08T20:01:29.031Z,74.02
2022-11-08T20:04:09.931Z,73.83
2022-11-08T20:06:39.947Z,73.28
2022-11-08T20:09:35.729Z,71.80
2022-11-08T20:15:07.266Z,73.97
2022-11-08T20:17:41.089Z,73.37
2022-11-08T20:20:12.724Z,73.04
2022-11-08T20:22:47.944Z,75.13
2022-11-08T20:25:27.897Z,74.01
2022-11-08T20:27:55.690Z,72.96
2022-11-08T20:33:10.073Z,72.14
2022-11-08T20:35:44.115Z,71.78
2022-11-08T20:38:19.459Z,72.25
2022-11-08T20:40:58.013Z,71.65
2022-11-08T20:43:30.358Z,71.90
2022-11-08T20:46:21.964Z,71.55
2022-11-08T20:48:53.069Z,71.64
2022-11-08T20:51:40.518Z,73.18
2022-11-08T20:54:43.604Z,70.93
2022-11-08T20:57:44.183Z,70.37
2022-11-08T21:00:57.351Z,72.84
2022-11-08T21:03:38.065Z,72.45
2022-11-08T21:09:47.782Z,72.36
2022-11-08T21:13:03.402Z,71.99
2022-11-08T21:15:51.742Z,72.34
2022-11-08T21:19:16.955Z,70.88
2022-11-08T21:22:25.107Z,71.50
2022-11-08T21:25:35.685Z,70.78
2022-11-08T21:28:26.679Z,70.51
2022-11-08T21:31:01.061Z,70.53
2022-11-08T21:34:29.593Z,71.07
2022-11-08T21:37:07.171Z,70.85
2022-11-08T21:43:18.172Z,71.24
2022-11-08T21:46:03.103Z,70.79
2022-11-08T21:48:49.083Z,71.85
2022-11-08T21:52:40.770Z,70.89
2022-11-08T21:55:49.044Z,71.16
2022-11-08T21:58:35.198Z,71.11
2022-11-08T22:01:47.548Z,70.16
2022-11-08T22:04:28.235Z,72.05
2022-11-08T22:07:25.054Z,70.97
2022-11-08T22:09:59.510Z,70.16
2022-11-08T22:12:29.546Z,70.37
2022-11-08T22:15:38.821Z,70.45
2022-11-08T22:21:17.918Z,70.70
2022-11-08T22:23:49.192Z,70.86
2022-11-08T22:26:20.182Z,71.51
2022-11-08T22:28:52.334Z,69.93
2022-11-08T22:31:23.358Z,69.38
2022-11-08T22:33:58.122Z,69.36
2022-11-08T22:36:28.149Z,70.22
2022-11-08T22:38:56.799Z,70.71
2022-11-08T22:41:34.262Z,72.25
2022-11-08T23:17:07.544Z,73.63
2022-11-08T23:20:20.181Z,74.08
2022-11-08T23:33:23.312Z,74.32
2022-11-08T23:36:16.912Z,74.01
2022-11-08T23:38:52.031Z,73.58
2022-11-08T23:41:45.516Z,74.61
2022-11-08T23:44:26.162Z,73.86
2022-11-08T23:46:56.489Z,73.97
2022-11-08T23:49:24.827Z,75.91
2022-11-08T23:51:53.293Z,75.77
2022-11-08T23:54:21.780Z,76.11
2022-11-08T23:56:49.882Z,74.97
2022-11-08T23:59:18.290Z,73.91
